createdAt,value
2022-09-25T00:01:34.157Z,20.23
2022-09-25T00:04:02.967Z,20.97
2022-09-25T00:06:33.405Z,22.30
2022-09-25T00:09:02.388Z,24.20
2022-09-25T00:11:32.836Z,23.83
2022-09-25T00:14:02.829Z,18.20
2022-09-25T00:16:33.093Z,17.40
2022-09-25T00:19:19.446Z,18.65
2022-09-25T00:21:50.175Z,18.25
2022-09-25T00:24:18.734Z,15.55
2022-09-25T00:26:47.266Z,17.75
2022-09-25T00:29:19.223Z,17.82
2022-09-25T00:31:47.760Z,17.30
2022-09-25T00:34:16.313Z,20.60
2022-09-25T00:36:44.915Z,17.50
2022-09-25T00:39:13.468Z,17.52
2022-09-25T00:41:42.090Z,15.98
2022-09-25T00:44:42.240Z,15.50
2022-09-25T00:47:13.826Z,15.60
2022-09-25T00:49:43.203Z,16.25
2022-09-25T00:52:14.085Z,18.67
2022-09-25T00:54:52.321Z,12.82
2022-09-25T00:57:25.723Z,16.25
2022-09-25T00:59:57.305Z,13.70
2022-09-25T01:02:28.983Z,15.58
2022-09-25T01:05:03.630Z,13.05
2022-09-25T01:07:34.816Z,15.30
2022-09-25T01:10:04.702Z,12.98
2022-09-25T01:12:33.596Z,15.28
2022-09-25T01:15:02.220Z,13.05
2022-09-25T01:17:45.535Z,13.70
2022-09-25T01:20:35.093Z,18.27
2022-09-25T01:23:29.139Z,15.95
2022-09-25T01:26:16.155Z,14.43
2022-09-25T01:28:59.840Z,16.07
2022-09-25T01:31:49.299Z,12.40
2022-09-25T01:34:20.920Z,8.40
2022-09-25T01:36:56.059Z,9.78
2022-09-25T01:39:32.221Z,8.73
2022-09-25T01:42:04.191Z,10.50
2022-09-25T01:44:36.027Z,9.20
2022-09-25T01:47:10.253Z,8.78
2022-09-25T01:49:44.777Z,12.73
2022-09-25T01:52:16.405Z,8.75
2022-09-25T01:54:51.822Z,8.15
2022-09-25T01:57:26.399Z,6.72
2022-09-25T02:00:03.917Z,7.83
2022-09-25T02:02:35.745Z,5.12
2022-09-25T02:05:10.311Z,6.40
2022-09-25T02:07:42.114Z,8.53
2022-09-25T02:10:19.580Z,6.45
2022-09-25T02:12:51.201Z,7.03
2022-09-25T02:15:22.886Z,7.70
2022-09-25T02:18:18.050Z,8.50
2022-09-25T02:20:50.302Z,7.08
2022-09-25T02:23:24.667Z,7.75
2022-09-25T02:26:11.917Z,9.48
2022-09-25T02:28:40.453Z,7.45
2022-09-25T02:31:12.431Z,6.30
2022-09-25T02:33:41.183Z,6.60
2022-09-25T02:36:23.071Z,7.72
2022-09-25T02:38:54.209Z,8.63
2022-09-25T02:41:34.714Z,5.62
2022-09-25T02:44:21.207Z,8.10
2022-09-25T02:46:52.839Z,12.13
2022-09-25T02:49:33.378Z,8.90
2022-09-25T02:52:07.879Z,12.63
2022-09-25T02:54:44.050Z,10.00
2022-09-25T02:57:18.479Z,8.33
2022-09-25T02:59:50.015Z,10.93
2022-09-25T03:02:19.958Z,10.95
2022-09-25T03:04:50.851Z,10.13
2022-09-25T03:07:20.737Z,10.95
2022-09-25T03:09:51.996Z,7.92
2022-09-25T03:12:20.596Z,5.87
2022-09-25T03:14:49.135Z,7.47
2022-09-25T03:17:17.795Z,10.63
2022-09-25T03:19:46.326Z,9.40
2022-09-25T03:22:14.857Z,6.62
2022-09-25T03:24:43.407Z,11.60
2022-09-25T03:27:11.944Z,7.40
2022-09-25T03:29:40.469Z,4.40
2022-09-25T03:32:10.085Z,4.35
2022-09-25T03:34:38.612Z,8.85
2022-09-25T03:37:07.180Z,6.33
2022-09-25T03:39:35.716Z,6.40
2022-09-25T03:42:05.702Z,4.83
2022-09-25T03:44:34.289Z,4.37
2022-09-25T03:47:02.800Z,4.03
2022-09-25T03:49:31.343Z,4.17
2022-09-25T03:52:00.171Z,5.53
2022-09-25T03:54:28.692Z,3.90
2022-09-25T03:56:57.804Z,7.28
2022-09-25T03:59:26.784Z,7.25
2022-09-25T04:01:55.321Z,7.15
2022-09-25T04:04:23.935Z,6.50
2022-09-25T04:06:52.463Z,11.78
2022-09-25T04:09:21.001Z,5.42
2022-09-25T04:11:50.066Z,6.30
2022-09-25T04:14:18.664Z,4.97
2022-09-25T04:16:47.295Z,6.25
2022-09-25T04:19:16.600Z,4.83
2022-09-25T04:21:45.197Z,7.10
2022-09-25T04:24:21.510Z,6.42
2022-09-25T04:26:51.725Z,7.67
2022-09-25T04:29:21.164Z,4.62
2022-09-25T04:31:51.451Z,8.48
2022-09-25T04:34:19.999Z,3.95
2022-09-25T04:36:48.533Z,5.60
2022-09-25T04:39:18.699Z,3.90
2022-09-25T04:41:47.689Z,7.00
2022-09-25T04:44:16.558Z,5.47
2022-09-25T04:46:45.176Z,9.45
2022-09-25T04:49:13.789Z,4.47
2022-09-25T04:51:42.337Z,7.50
2022-09-25T04:54:10.867Z,6.25
2022-09-25T04:56:39.324Z,6.37
2022-09-25T04:59:07.855Z,9.35
2022-09-25T05:01:36.475Z,7.47
2022-09-25T05:04:08.658Z,6.00
2022-09-25T05:06:35.371Z,8.50
2022-09-25T05:09:03.940Z,7.08
2022-09-25T05:11:32.465Z,6.67
2022-09-25T05:14:01.276Z,8.40
2022-09-25T05:16:30.760Z,5.85
2022-09-25T05:18:59.569Z,8.10
2022-09-25T05:21:28.184Z,9.35
2022-09-25T05:23:56.811Z,6.12
2022-09-25T05:26:25.572Z,9.53
2022-09-25T05:28:54.114Z,9.28
2022-09-25T05:31:22.783Z,6.10
2022-09-25T05:33:51.620Z,8.45
2022-09-25T05:36:20.291Z,6.50
2022-09-25T05:38:48.830Z,7.00
2022-09-25T05:41:17.722Z,5.05
2022-09-25T05:43:47.604Z,4.62
2022-09-25T05:46:16.566Z,6.42
2022-09-25T05:48:45.064Z,8.53
2022-09-25T05:51:13.602Z,8.20
2022-09-25T05:53:42.324Z,8.43
2022-09-25T05:56:12.227Z,7.25
2022-09-25T05:58:40.761Z,7.90
2022-09-25T06:01:09.369Z,7.08
2022-09-25T06:03:37.908Z,3.83
2022-09-25T06:06:06.904Z,4.62
2022-09-25T06:08:38.188Z,7.00
2022-09-25T06:11:08.152Z,6.72
2022-09-25T06:13:36.965Z,10.32
2022-09-25T06:16:07.869Z,3.02
2022-09-25T06:18:37.804Z,9.78
2022-09-25T06:21:06.707Z,6.60
2022-09-25T06:23:35.247Z,2.25
2022-09-25T06:26:05.231Z,5.95
2022-09-25T06:28:34.402Z,9.43
2022-09-25T06:31:04.530Z,5.37
2022-09-25T06:33:33.781Z,5.58
2022-09-25T06:36:02.433Z,5.08
2022-09-25T06:38:32.732Z,3.92
2022-09-25T06:41:01.750Z,8.78
2022-09-25T06:43:30.425Z,6.15
2022-09-25T06:46:03.072Z,6.20
2022-09-25T06:48:32.292Z,4.72
2022-09-25T06:51:01.900Z,8.40
2022-09-25T06:53:30.805Z,7.40
2022-09-25T06:56:02.727Z,3.02
2022-09-25T06:58:31.568Z,4.23
2022-09-25T07:01:00.116Z,4.03
2022-09-25T07:03:47.372Z,5.97
2022-09-25T07:06:20.006Z,6.22
2022-09-25T07:08:49.188Z,4.92
2022-09-25T07:11:22.784Z,3.05
2022-09-25T07:13:52.190Z,4.65
2022-09-25T07:16:20.961Z,5.33
2022-09-25T07:18:50.739Z,9.65
2022-09-25T07:21:19.832Z,4.80
2022-09-25T07:23:51.613Z,4.55
2022-09-25T07:26:23.305Z,8.50
2022-09-25T07:28:56.102Z,9.35
2022-09-25T07:33:51.781Z,6.67
2022-09-25T07:36:20.537Z,7.65
2022-09-25T07:38:53.391Z,10.00
2022-09-25T07:46:31.350Z,6.90
2022-09-25T07:49:00.816Z,7.28
2022-09-25T07:51:29.361Z,6.92
2022-09-25T07:53:58.770Z,6.30
2022-09-25T07:56:27.751Z,5.20
2022-09-25T07:58:56.372Z,8.33
2022-09-25T08:01:25.005Z,10.18
2022-09-25T08:03:54.010Z,9.60
2022-09-25T08:06:22.650Z,5.72
2022-09-25T08:08:51.240Z,6.90
2022-09-25T08:11:19.941Z,8.78
2022-09-25T08:13:49.389Z,10.50
2022-09-25T08:16:21.119Z,6.55
2022-09-25T08:18:50.677Z,5.78
2022-09-25T08:21:21.446Z,7.62
2022-09-25T08:23:52.338Z,5.95
2022-09-25T08:26:22.392Z,9.45
2022-09-25T08:28:51.970Z,5.95
2022-09-25T08:31:20.638Z,9.70
2022-09-25T08:33:50.768Z,5.40
2022-09-25T08:36:19.746Z,5.47
2022-09-25T08:38:48.524Z,8.43
2022-09-25T08:41:28.789Z,7.33
2022-09-25T08:44:09.286Z,8.98
2022-09-25T08:47:07.588Z,5.15
2022-09-25T08:49:42.206Z,6.25
2022-09-25T08:52:13.880Z,5.12
2022-09-25T08:54:45.069Z,6.92
2022-09-25T08:57:31.353Z,6.47
2022-09-25T09:00:03.163Z,7.12
2022-09-25T09:02:46.987Z,6.80
2022-09-25T09:05:30.996Z,7.58
2022-09-25T09:08:08.449Z,8.18
2022-09-25T09:10:40.063Z,4.55
2022-09-25T09:13:37.153Z,7.67
2022-09-25T09:16:08.930Z,7.55
2022-09-25T09:18:40.245Z,9.40
2022-09-25T09:21:22.460Z,10.90
2022-09-25T09:24:08.997Z,9.53
2022-09-25T09:27:04.467Z,9.75
2022-09-25T09:29:45.258Z,6.78
2022-09-25T09:32:33.253Z,10.43
2022-09-25T09:35:20.644Z,7.22
2022-09-25T09:38:28.247Z,4.80
2022-09-25T09:41:09.975Z,5.47
2022-09-25T09:43:57.170Z,1.98
2022-09-25T10:20:51.483Z,2.55
2022-09-25T10:23:24.294Z,5.28
2022-09-25T10:28:23.107Z,3.62
2022-09-25T10:50:57.724Z,2.62
2022-09-25T10:53:28.838Z,6.25
2022-09-25T10:56:08.290Z,6.55
2022-09-25T10:58:40.972Z,3.95
2022-09-25T11:01:12.161Z,5.53
2022-09-25T11:03:47.746Z,5.28
2022-09-25T11:53:36.353Z,4.95
2022-09-25T15:18:49.027Z,0.75
2022-09-25T15:21:18.770Z,1.75
2022-09-25T15:23:47.309Z,4.12
2022-09-25T15:26:18.769Z,3.17
2022-09-25T15:28:47.110Z,2.20
2022-09-25T15:31:15.416Z,2.65
2022-09-25T15:33:45.476Z,1.87
2022-09-25T15:36:17.794Z,1.00
2022-09-25T15:38:47.534Z,1.50
2022-09-25T15:41:15.941Z,1.72
2022-09-25T15:43:44.229Z,1.07
2022-09-25T15:46:30.132Z,1.20
2022-09-25T15:48:59.238Z,2.98
2022-09-25T15:51:33.340Z,2.80
2022-09-25T15:54:02.925Z,0.55
2022-09-25T15:56:32.667Z,2.08
2022-09-25T15:59:02.408Z,0.60
2022-09-25T16:01:49.241Z,0.53
2022-09-25T16:04:38.968Z,2.25
2022-09-25T16:07:26.221Z,2.90
2022-09-25T16:09:56.100Z,3.10
2022-09-25T16:12:29.594Z,3.30
2022-09-25T16:14:58.697Z,3.33
2022-09-25T16:17:28.443Z,2.52
2022-09-25T16:20:00.855Z,1.00
2022-09-25T16:22:31.690Z,1.95
2022-09-25T16:25:00.735Z,2.92
2022-09-25T16:27:30.477Z,1.50
2022-09-25T16:30:03.618Z,1.00
2022-09-25T16:32:30.355Z,1.90
2022-09-25T16:35:02.020Z,2.58
2022-09-25T16:37:33.635Z,0.90
2022-09-25T16:40:11.519Z,0.75
2022-09-25T16:42:40.754Z,1.02
2022-09-25T16:45:15.804Z,1.98
2022-09-25T16:47:49.201Z,0.98
2022-09-25T16:50:16.682Z,3.20
2022-09-25T16:52:45.565Z,2.98
2022-09-25T16:55:20.527Z,0.62
2022-09-25T16:57:49.082Z,1.72
2022-09-25T17:00:20.688Z,1.15
2022-09-25T17:02:49.257Z,2.15
2022-09-25T17:05:25.741Z,4.22
2022-09-25T17:07:57.339Z,1.87
2022-09-25T17:10:32.059Z,2.92
2022-09-25T17:13:02.655Z,0.57
2022-09-25T17:15:34.422Z,0.45
2022-09-25T17:18:04.172Z,1.65
2022-09-25T17:20:32.797Z,1.05
2022-09-25T17:23:01.863Z,1.07
2022-09-25T17:25:47.909Z,0.80
2022-09-25T17:28:17.298Z,0.50
2022-09-25T17:30:46.197Z,1.85
2022-09-25T17:33:20.317Z,1.12
2022-09-25T17:36:06.400Z,1.05
2022-09-25T17:38:35.497Z,5.28
2022-09-25T17:41:07.004Z,1.12
2022-09-25T17:43:35.611Z,2.65
2022-09-25T17:46:04.993Z,2.02
2022-09-25T17:48:33.939Z,1.30
2022-09-25T17:51:04.679Z,1.30
2022-09-25T17:53:34.373Z,1.05
2022-09-25T17:56:03.379Z,1.10
2022-09-25T17:58:32.596Z,0.70
2022-09-25T18:01:04.238Z,0.95
2022-09-25T18:03:32.991Z,2.40
2022-09-25T18:06:01.558Z,0.90
2022-09-25T18:08:30.951Z,0.65
2022-09-25T18:10:59.830Z,1.72
2022-09-25T18:13:28.399Z,3.15
2022-09-25T18:15:59.929Z,12.20
2022-09-25T18:18:33.042Z,3.83
2022-09-25T18:21:19.204Z,1.10
2022-09-25T18:23:47.813Z,2.55
2022-09-25T18:26:16.527Z,1.15
2022-09-25T18:28:45.065Z,1.77
2022-09-25T18:31:14.121Z,1.67
2022-09-25T18:33:47.158Z,1.75
2022-09-25T18:36:13.329Z,1.50
2022-09-25T18:38:41.866Z,3.35
2022-09-25T18:41:10.408Z,1.82
2022-09-25T18:43:38.967Z,3.22
2022-09-25T18:46:07.626Z,1.95
2022-09-25T18:48:37.382Z,1.80
2022-09-25T18:51:07.122Z,2.02
2022-09-25T18:53:35.663Z,3.50
2022-09-25T18:56:04.227Z,3.10
2022-09-25T18:58:32.763Z,5.45
2022-09-25T19:01:01.486Z,1.30
2022-09-25T19:03:30.274Z,2.72
2022-09-25T19:06:02.764Z,2.50
2022-09-25T19:08:32.335Z,2.15
2022-09-25T19:11:01.140Z,2.47
2022-09-25T19:13:30.190Z,3.08
2022-09-25T19:15:58.923Z,2.83
2022-09-25T19:18:27.494Z,2.55
2022-09-25T19:20:56.093Z,3.77
2022-09-25T19:23:26.486Z,2.10
2022-09-25T19:26:02.049Z,2.00
2022-09-25T19:28:32.233Z,3.10
2022-09-25T19:31:06.525Z,2.60
2022-09-25T19:33:37.677Z,1.90
2022-09-25T19:36:09.347Z,2.60
2022-09-25T19:38:40.087Z,2.35
2022-09-25T19:41:24.860Z,3.42
2022-09-25T19:43:57.541Z,2.62
2022-09-25T19:46:27.945Z,3.30
2022-09-25T19:49:04.538Z,3.62
2022-09-25T19:51:33.549Z,2.90
2022-09-25T19:54:02.087Z,4.03
2022-09-25T19:56:30.617Z,5.85
2022-09-25T19:58:59.164Z,2.92
2022-09-25T20:01:30.241Z,3.83
2022-09-25T20:03:58.897Z,6.12
2022-09-25T20:06:28.317Z,4.65
2022-09-25T20:09:03.590Z,2.98
2022-09-25T20:11:34.255Z,4.67
2022-09-25T20:14:04.804Z,3.42
2022-09-25T20:16:33.661Z,3.10
2022-09-25T20:19:04.592Z,4.00
2022-09-25T20:21:38.181Z,5.83
2022-09-25T20:24:08.749Z,3.77
2022-09-25T20:26:38.024Z,2.65
2022-09-25T20:29:12.802Z,2.62
2022-09-25T20:31:43.309Z,2.50
2022-09-25T20:34:17.603Z,4.30
2022-09-25T20:36:47.015Z,3.45
2022-09-25T20:39:20.461Z,3.22
2022-09-25T20:41:45.843Z,4.05
2022-09-25T20:44:14.423Z,2.87
2022-09-25T20:46:43.089Z,4.30
2022-09-25T20:49:13.129Z,5.20
2022-09-25T20:51:42.107Z,4.28
2022-09-25T20:54:11.382Z,2.70
2022-09-25T20:56:44.759Z,3.17
2022-09-25T20:59:15.328Z,4.20
2022-09-25T21:01:43.926Z,3.72
2022-09-25T21:04:12.619Z,5.90
2022-09-25T21:06:42.761Z,4.95
2022-09-25T21:09:17.243Z,3.42
2022-09-25T21:11:45.781Z,3.08
2022-09-25T21:14:19.725Z,2.90
2022-09-25T21:16:49.445Z,4.53
2022-09-25T21:19:19.839Z,5.37
2022-09-25T21:21:49.137Z,4.95
2022-09-25T21:24:20.213Z,4.28
2022-09-25T21:26:49.816Z,4.60
2022-09-25T21:29:18.675Z,4.53
2022-09-25T21:31:50.356Z,4.00
2022-09-25T21:34:18.110Z,3.50
2022-09-25T21:36:47.088Z,6.47
2022-09-25T21:39:16.070Z,5.10
2022-09-25T21:41:45.010Z,4.17
2022-09-25T21:44:15.497Z,4.28
2022-09-25T21:46:44.580Z,4.03
2022-09-25T21:49:21.601Z,4.78
2022-09-25T21:51:50.956Z,6.35
2022-09-25T21:54:19.574Z,8.63
2022-09-25T21:56:49.064Z,3.62
2022-09-25T21:59:18.225Z,2.87
2022-09-25T22:01:46.800Z,5.20
2022-09-25T22:04:16.034Z,3.55
2022-09-25T22:06:47.393Z,2.58
2022-09-25T22:09:18.994Z,3.50
2022-09-25T22:11:48.269Z,4.40
2022-09-25T22:14:17.139Z,2.65
2022-09-25T22:16:48.619Z,5.65
2022-09-25T22:19:20.349Z,4.90
2022-09-25T22:21:50.642Z,2.80
2022-09-25T22:24:19.912Z,4.08
2022-09-25T22:26:51.338Z,5.85
2022-09-25T22:29:21.024Z,4.50
2022-09-25T22:31:49.570Z,3.87
2022-09-25T22:34:24.140Z,3.62
2022-09-25T22:36:58.628Z,4.62
2022-09-25T22:39:23.905Z,4.20
2022-09-25T22:41:53.495Z,3.67
2022-09-25T22:44:22.489Z,2.40
2022-09-25T22:46:51.131Z,2.55
2022-09-25T22:49:19.679Z,5.37
2022-09-25T22:51:48.349Z,2.42
2022-09-25T22:54:17.639Z,3.75
2022-09-25T22:56:46.248Z,6.30
2022-09-25T22:59:18.552Z,7.22
2022-09-25T23:01:50.280Z,3.98
2022-09-25T23:04:22.220Z,6.67
2022-09-25T23:06:51.099Z,4.57
2022-09-25T23:09:22.368Z,3.67
2022-09-25T23:11:50.920Z,4.10
2022-09-25T23:14:25.253Z,3.72
2022-09-25T23:16:55.106Z,4.75
2022-09-25T23:19:24.675Z,4.42
2022-09-25T23:21:54.690Z,4.58
2022-09-25T23:24:24.555Z,3.30
2022-09-25T23:26:54.090Z,4.92
2022-09-25T23:29:23.667Z,3.50
2022-09-25T23:31:52.854Z,3.45
2022-09-25T23:34:21.599Z,6.25
2022-09-25T23:36:50.136Z,2.92
2022-09-25T23:39:20.904Z,4.10
2022-09-25T23:41:49.514Z,4.35
2022-09-25T23:44:18.117Z,5.55
2022-09-25T23:46:46.751Z,3.45
2022-09-25T23:49:15.987Z,3.10
2022-09-25T23:51:46.149Z,3.55
2022-09-25T23:54:14.845Z,3.72
2022-09-25T23:56:43.825Z,5.65
2022-09-25T23:59:13.782Z,5.33
